sensor_id;sensor_type;location;lat;lon;timestamp;pressure;altitude;pressure_sealevel;temperature;humidity
75972;BME280;64651;47.540;19.088;2023-08-12T00:00:38;101065.50;;;16.23;74.03
75972;BME280;64651;47.540;19.088;2023-08-12T00:05:41;101065.88;;;16.35;73.74
75972;BME280;64651;47.540;19.088;2023-08-12T00:10:44;101066.66;;;16.22;74.53
75972;BME280;64651;47.540;19.088;2023-08-12T00:15:47;101059.53;;;16.16;74.98
75972;BME280;64651;47.540;19.088;2023-08-12T00:20:49;101058.25;;;16.08;75.68
75972;BME280;64651;47.540;19.088;2023-08-12T00:25:51;101057.03;;;15.96;76.32
75972;BME280;64651;47.540;19.088;2023-08-12T00:30:53;101050.97;;;15.94;76.59
75972;BME280;64651;47.540;19.088;2023-08-12T00:35:56;101060.09;;;15.94;76.83
75972;BME280;64651;47.540;19.088;2023-08-12T00:40:58;101060.47;;;15.88;77.21
75972;BME280;64651;47.540;19.088;2023-08-12T00:46:00;101059.16;;;15.85;77.44
75972;BME280;64651;47.540;19.088;2023-08-12T00:51:03;101061.38;;;15.83;77.75
75972;BME280;64651;47.540;19.088;2023-08-12T00:56:05;101063.13;;;15.79;77.95
75972;BME280;64651;47.540;19.088;2023-08-12T01:01:07;101061.44;;;15.78;78.47
75972;BME280;64651;47.540;19.088;2023-08-12T01:06:10;101058.75;;;15.73;79.09
75972;BME280;64651;47.540;19.088;2023-08-12T01:11:28;101056.28;;;15.71;79.52
75972;BME280;64651;47.540;19.088;2023-08-12T01:16:33;101054.91;;;15.69;79.82
75972;BME280;64651;47.540;19.088;2023-08-12T01:21:41;101065.50;;;15.67;80.07
75972;BME280;64651;47.540;19.088;2023-08-12T01:26:46;101067.72;;;15.65;80.37
75972;BME280;64651;47.540;19.088;2023-08-12T01:31:53;101070.56;;;15.60;80.62
75972;BME280;64651;47.540;19.088;2023-08-12T01:36:58;101078.63;;;15.56;81.15
75972;BME280;64651;47.540;19.088;2023-08-12T01:42:01;101079.25;;;15.53;81.41
75972;BME280;64651;47.540;19.088;2023-08-12T01:47:07;101078.53;;;15.42;81.89
75972;BME280;64651;47.540;19.088;2023-08-12T01:52:10;101069.59;;;15.46;81.88
75972;BME280;64651;47.540;19.088;2023-08-12T01:57:12;101075.50;;;15.63;81.52
75972;BME280;64651;47.540;19.088;2023-08-12T02:02:15;101072.44;;;15.64;80.83
75972;BME280;64651;47.540;19.088;2023-08-12T02:07:18;101069.88;;;15.68;79.83
75972;BME280;64651;47.540;19.088;2023-08-12T02:12:20;101060.53;;;15.64;79.26
75972;BME280;64651;47.540;19.088;2023-08-12T02:17:22;101066.97;;;15.59;78.94
75972;BME280;64651;47.540;19.088;2023-08-12T02:22:24;101068.66;;;15.31;79.74
75972;BME280;64651;47.540;19.088;2023-08-12T02:27:26;101067.37;;;15.24;80.11
75972;BME280;64651;47.540;19.088;2023-08-12T02:32:28;101071.81;;;15.20;80.53
75972;BME280;64651;47.540;19.088;2023-08-12T02:37:31;101058.28;;;15.18;80.63
75972;BME280;64651;47.540;19.088;2023-08-12T02:42:33;101053.44;;;15.29;80.67
75972;BME280;64651;47.540;19.088;2023-08-12T02:47:35;101061.00;;;15.23;80.84
75972;BME280;64651;47.540;19.088;2023-08-12T02:52:37;101053.38;;;15.10;81.28
75972;BME280;64651;47.540;19.088;2023-08-12T02:57:40;101063.63;;;15.10;81.64
75972;BME280;64651;47.540;19.088;2023-08-12T03:02:42;101061.75;;;15.05;81.74
75972;BME280;64651;47.540;19.088;2023-08-12T03:07:45;101062.59;;;15.00;81.98
75972;BME280;64651;47.540;19.088;2023-08-12T03:12:47;101054.34;;;14.95;82.22
75972;BME280;64651;47.540;19.088;2023-08-12T03:17:49;101049.91;;;14.94;82.40
75972;BME280;64651;47.540;19.088;2023-08-12T03:22:52;101058.78;;;14.96;82.60
75972;BME280;64651;47.540;19.088;2023-08-12T03:27:54;101056.00;;;14.96;82.66
75972;BME280;64651;47.540;19.088;2023-08-12T03:32:57;101067.69;;;14.93;83.10
75972;BME280;64651;47.540;19.088;2023-08-12T03:37:59;101067.44;;;14.90;83.43
75972;BME280;64651;47.540;19.088;2023-08-12T03:43:01;101069.91;;;14.91;83.47
75972;BME280;64651;47.540;19.088;2023-08-12T03:48:04;101080.44;;;14.89;83.46
75972;BME280;64651;47.540;19.088;2023-08-12T03:53:09;101081.50;;;14.98;83.25
75972;BME280;64651;47.540;19.088;2023-08-12T03:58:11;101082.59;;;14.97;83.34
75972;BME280;64651;47.540;19.088;2023-08-12T04:03:13;101086.34;;;15.12;83.30
75972;BME280;64651;47.540;19.088;2023-08-12T04:08:16;101088.88;;;15.32;82.57
75972;BME280;64651;47.540;19.088;2023-08-12T04:13:18;101089.56;;;15.48;81.73
75972;BME280;64651;47.540;19.088;2023-08-12T04:18:21;101103.03;;;15.59;80.76
75972;BME280;64651;47.540;19.088;2023-08-12T04:23:23;101103.50;;;15.66;80.12
75972;BME280;64651;47.540;19.088;2023-08-12T04:28:25;101101.72;;;15.75;79.70
75972;BME280;64651;47.540;19.088;2023-08-12T04:33:28;101108.63;;;15.78;79.32
75972;BME280;64651;47.540;19.088;2023-08-12T04:38:30;101104.94;;;15.82;78.63
75972;BME280;64651;47.540;19.088;2023-08-12T04:43:33;101106.62;;;15.83;78.91
75972;BME280;64651;47.540;19.088;2023-08-12T04:48:35;101104.22;;;15.96;78.51
75972;BME280;64651;47.540;19.088;2023-08-12T04:53:37;101112.88;;;16.13;77.33
75972;BME280;64651;47.540;19.088;2023-08-12T04:58:39;101115.28;;;16.19;76.99
75972;BME280;64651;47.540;19.088;2023-08-12T05:03:42;101116.84;;;16.26;76.58
75972;BME280;64651;47.540;19.088;2023-08-12T05:08:44;101116.41;;;16.37;76.27
75972;BME280;64651;47.540;19.088;2023-08-12T05:13:46;101121.13;;;16.55;75.48
75972;BME280;64651;47.540;19.088;2023-08-12T05:18:48;101123.47;;;16.67;74.84
75972;BME280;64651;47.540;19.088;2023-08-12T05:23:51;101112.78;;;16.74;74.29
75972;BME280;64651;47.540;19.088;2023-08-12T05:28:53;101116.50;;;16.83;73.85
75972;BME280;64651;47.540;19.088;2023-08-12T05:33:55;101126.22;;;16.86;73.81
75972;BME280;64651;47.540;19.088;2023-08-12T05:38:58;101125.03;;;17.06;72.96
75972;BME280;64651;47.540;19.088;2023-08-12T05:44:00;101119.09;;;17.12;72.65
75972;BME280;64651;47.540;19.088;2023-08-12T05:49:03;101122.00;;;17.34;71.42
75972;BME280;64651;47.540;19.088;2023-08-12T05:54:05;101118.00;;;17.54;69.87
75972;BME280;64651;47.540;19.088;2023-08-12T05:59:07;101123.91;;;17.80;68.69
75972;BME280;64651;47.540;19.088;2023-08-12T06:04:09;101124.59;;;17.99;67.85
75972;BME280;64651;47.540;19.088;2023-08-12T06:09:13;101121.37;;;18.06;67.43
75972;BME280;64651;47.540;19.088;2023-08-12T06:14:15;101119.81;;;18.27;66.55
75972;BME280;64651;47.540;19.088;2023-08-12T06:19:17;101112.00;;;18.51;65.83
75972;BME280;64651;47.540;19.088;2023-08-12T06:24:20;101111.78;;;18.61;65.41
75972;BME280;64651;47.540;19.088;2023-08-12T06:29:22;101113.62;;;18.66;65.32
75972;BME280;64651;47.540;19.088;2023-08-12T06:34:24;101110.63;;;18.85;64.20
75972;BME280;64651;47.540;19.088;2023-08-12T06:39:26;101117.63;;;18.96;63.29
75972;BME280;64651;47.540;19.088;2023-08-12T06:44:29;101113.12;;;19.17;63.17
75972;BME280;64651;47.540;19.088;2023-08-12T06:49:31;101111.81;;;19.15;65.11
75972;BME280;64651;47.540;19.088;2023-08-12T06:54:33;101098.81;;;19.41;64.42
75972;BME280;64651;47.540;19.088;2023-08-12T06:59:35;101109.84;;;19.46;63.99
75972;BME280;64651;47.540;19.088;2023-08-12T07:04:38;101111.94;;;19.71;62.97
75972;BME280;64651;47.540;19.088;2023-08-12T07:09:40;101110.19;;;19.93;62.06
75972;BME280;64651;47.540;19.088;2023-08-12T07:14:42;101112.69;;;20.03;61.41
75972;BME280;64651;47.540;19.088;2023-08-12T07:19:44;101109.94;;;20.29;60.77
75972;BME280;64651;47.540;19.088;2023-08-12T07:24:46;101107.50;;;20.44;60.30
75972;BME280;64651;47.540;19.088;2023-08-12T07:29:49;101103.22;;;20.64;59.42
75972;BME280;64651;47.540;19.088;2023-08-12T07:34:51;101111.41;;;20.95;58.75
75972;BME280;64651;47.540;19.088;2023-08-12T07:39:53;101102.81;;;21.64;56.04
75972;BME280;64651;47.540;19.088;2023-08-12T07:44:56;101105.00;;;21.87;55.37
75972;BME280;64651;47.540;19.088;2023-08-12T07:49:58;101108.63;;;22.17;54.42
75972;BME280;64651;47.540;19.088;2023-08-12T07:55:00;101100.44;;;24.01;49.67
75972;BME280;64651;47.540;19.088;2023-08-12T08:00:03;101091.25;;;26.38;44.91
75972;BME280;64651;47.540;19.088;2023-08-12T08:05:06;101089.31;;;27.64;40.96
75972;BME280;64651;47.540;19.088;2023-08-12T08:10:09;101086.00;;;28.38;38.57
75972;BME280;64651;47.540;19.088;2023-08-12T08:15:12;101093.88;;;29.15;36.42
75972;BME280;64651;47.540;19.088;2023-08-12T08:20:14;101070.87;;;30.25;35.36
75972;BME280;64651;47.540;19.088;2023-08-12T08:25:16;101075.56;;;30.69;33.96
75972;BME280;64651;47.540;19.088;2023-08-12T08:30:19;101081.03;;;32.30;31.11
75972;BME280;64651;47.540;19.088;2023-08-12T08:35:21;101076.84;;;32.59;30.64
75972;BME280;64651;47.540;19.088;2023-08-12T08:40:25;101071.78;;;34.06;28.50
75972;BME280;64651;47.540;19.088;2023-08-12T08:45:29;101064.44;;;34.42;27.95
75972;BME280;64651;47.540;19.088;2023-08-12T08:50:36;101065.22;;;35.61;25.89
75972;BME280;64651;47.540;19.088;2023-08-12T08:55:42;101062.91;;;34.68;26.07
75972;BME280;64651;47.540;19.088;2023-08-12T09:00:45;101056.03;;;35.96;24.65
75972;BME280;64651;47.540;19.088;2023-08-12T09:05:48;101062.19;;;36.57;23.93
75972;BME280;64651;47.540;19.088;2023-08-12T09:10:51;101057.03;;;35.86;23.76
75972;BME280;64651;47.540;19.088;2023-08-12T09:15:54;101050.59;;;38.30;20.99
75972;BME280;64651;47.540;19.088;2023-08-12T09:20:57;101044.09;;;38.55;21.39
75972;BME280;64651;47.540;19.088;2023-08-12T09:26:01;101041.53;;;37.38;21.86
75972;BME280;64651;47.540;19.088;2023-08-12T09:31:03;101038.16;;;38.33;21.36
75972;BME280;64651;47.540;19.088;2023-08-12T09:36:05;101031.06;;;39.30;21.47
75972;BME280;64651;47.540;19.088;2023-08-12T09:41:08;101031.94;;;38.76;20.70
75972;BME280;64651;47.540;19.088;2023-08-12T09:46:11;101023.50;;;40.39;20.55
75972;BME280;64651;47.540;19.088;2023-08-12T09:51:17;101014.38;;;39.85;21.44
75972;BME280;64651;47.540;19.088;2023-08-12T09:56:22;101013.37;;;39.79;19.85
75972;BME280;64651;47.540;19.088;2023-08-12T10:01:25;101013.75;;;40.46;18.97
75972;BME280;64651;47.540;19.088;2023-08-12T10:06:28;100996.84;;;40.88;18.78
75972;BME280;64651;47.540;19.088;2023-08-12T10:11:31;100990.50;;;41.60;17.93
75972;BME280;64651;47.540;19.088;2023-08-12T10:16:33;100984.97;;;41.26;17.93
75972;BME280;64651;47.540;19.088;2023-08-12T10:21:37;100980.97;;;41.32;18.27
75972;BME280;64651;47.540;19.088;2023-08-12T10:26:40;100980.59;;;41.70;16.96
75972;BME280;64651;47.540;19.088;2023-08-12T10:31:43;100973.22;;;40.71;18.59
75972;BME280;64651;47.540;19.088;2023-08-12T10:36:48;100975.97;;;41.24;15.97
75972;BME280;64651;47.540;19.088;2023-08-12T10:42:03;100965.72;;;41.23;16.22
75972;BME280;64651;47.540;19.088;2023-08-12T10:47:08;100957.50;;;40.50;15.23
75972;BME280;64651;47.540;19.088;2023-08-12T10:52:41;100958.38;;;39.73;16.44
75972;BME280;64651;47.540;19.088;2023-08-12T10:57:46;100947.62;;;42.23;14.19
75972;BME280;64651;47.540;19.088;2023-08-12T11:02:51;100943.81;;;41.71;14.78
75972;BME280;64651;47.540;19.088;2023-08-12T11:07:59;100940.44;;;44.56;13.05
75972;BME280;64651;47.540;19.088;2023-08-12T11:13:03;100935.97;;;43.73;13.51
75972;BME280;64651;47.540;19.088;2023-08-12T11:18:13;100929.78;;;43.17;13.44
75972;BME280;64651;47.540;19.088;2023-08-12T11:23:16;100917.63;;;44.05;13.15
75972;BME280;64651;47.540;19.088;2023-08-12T11:28:19;100902.03;;;44.46;12.60
75972;BME280;64651;47.540;19.088;2023-08-12T11:33:23;100899.59;;;43.00;14.29
75972;BME280;64651;47.540;19.088;2023-08-12T11:38:26;100894.91;;;44.47;13.81
75972;BME280;64651;47.540;19.088;2023-08-12T11:43:29;100890.41;;;44.02;13.87
75972;BME280;64651;47.540;19.088;2023-08-12T11:48:32;100891.06;;;43.44;14.53
75972;BME280;64651;47.540;19.088;2023-08-12T11:53:34;100882.38;;;44.71;13.93
75972;BME280;64651;47.540;19.088;2023-08-12T11:58:37;100883.78;;;43.73;14.12
75972;BME280;64651;47.540;19.088;2023-08-12T12:03:54;100874.19;;;44.11;14.18
75972;BME280;64651;47.540;19.088;2023-08-12T12:09:00;100868.44;;;43.57;14.79
75972;BME280;64651;47.540;19.088;2023-08-12T12:14:04;100857.97;;;44.48;14.06
75972;BME280;64651;47.540;19.088;2023-08-12T12:19:17;100865.25;;;41.18;16.36
75972;BME280;64651;47.540;19.088;2023-08-12T12:24:20;100851.44;;;42.79;15.38
75972;BME280;64651;47.540;19.088;2023-08-12T12:29:23;100846.75;;;45.51;13.62
75972;BME280;64651;47.540;19.088;2023-08-12T12:34:25;100840.22;;;43.19;15.13
75972;BME280;64651;47.540;19.088;2023-08-12T12:39:33;100837.47;;;45.07;14.00
75972;BME280;64651;47.540;19.088;2023-08-12T12:44:36;100832.06;;;44.44;14.01
75972;BME280;64651;47.540;19.088;2023-08-12T12:49:39;100824.75;;;44.20;14.43
75972;BME280;64651;47.540;19.088;2023-08-12T12:54:43;100821.59;;;44.03;14.68
75972;BME280;64651;47.540;19.088;2023-08-12T12:59:45;100818.81;;;43.41;14.99
75972;BME280;64651;47.540;19.088;2023-08-12T13:04:47;100808.25;;;43.14;15.01
75972;BME280;64651;47.540;19.088;2023-08-12T13:09:51;100808.81;;;42.04;16.36
75972;BME280;64651;47.540;19.088;2023-08-12T13:14:54;100798.12;;;40.96;16.37
75972;BME280;64651;47.540;19.088;2023-08-12T13:19:56;100794.16;;;43.75;14.69
75972;BME280;64651;47.540;19.088;2023-08-12T13:24:59;100793.59;;;43.32;14.93
75972;BME280;64651;47.540;19.088;2023-08-12T13:30:01;100785.75;;;43.62;14.69
75972;BME280;64651;47.540;19.088;2023-08-12T13:35:04;100784.97;;;42.84;15.25
75972;BME280;64651;47.540;19.088;2023-08-12T13:40:08;100781.72;;;44.18;14.86
75972;BME280;64651;47.540;19.088;2023-08-12T13:45:12;100780.50;;;42.50;16.34
75972;BME280;64651;47.540;19.088;2023-08-12T13:50:14;100774.31;;;43.29;15.67
75972;BME280;64651;47.540;19.088;2023-08-12T13:55:17;100773.75;;;40.78;17.63
75972;BME280;64651;47.540;19.088;2023-08-12T14:00:19;100769.19;;;41.96;18.18
75972;BME280;64651;47.540;19.088;2023-08-12T14:05:22;100761.72;;;41.44;17.18
75972;BME280;64651;47.540;19.088;2023-08-12T14:10:24;100755.09;;;41.70;18.58
75972;BME280;64651;47.540;19.088;2023-08-12T14:15:27;100749.37;;;40.88;17.81
75972;BME280;64651;47.540;19.088;2023-08-12T14:20:29;100748.81;;;40.53;18.44
75972;BME280;64651;47.540;19.088;2023-08-12T14:25:31;100745.28;;;38.32;20.50
75972;BME280;64651;47.540;19.088;2023-08-12T14:30:39;100743.72;;;38.78;19.93
75972;BME280;64651;47.540;19.088;2023-08-12T14:35:42;100744.19;;;40.07;19.25
75972;BME280;64651;47.540;19.088;2023-08-12T14:40:47;100736.22;;;39.80;19.52
75972;BME280;64651;47.540;19.088;2023-08-12T14:45:49;100738.66;;;38.22;21.11
75972;BME280;64651;47.540;19.088;2023-08-12T14:50:52;100735.16;;;38.52;20.57
75972;BME280;64651;47.540;19.088;2023-08-12T14:55:54;100729.53;;;38.96;20.22
75972;BME280;64651;47.540;19.088;2023-08-12T15:00:56;100720.56;;;38.81;20.54
75972;BME280;64651;47.540;19.088;2023-08-12T15:06:04;100713.50;;;39.60;20.74
75972;BME280;64651;47.540;19.088;2023-08-12T15:11:07;100711.25;;;39.55;21.09
75972;BME280;64651;47.540;19.088;2023-08-12T15:16:10;100700.16;;;38.88;21.84
75972;BME280;64651;47.540;19.088;2023-08-12T15:21:13;100696.19;;;38.01;21.14
75972;BME280;64651;47.540;19.088;2023-08-12T15:26:15;100690.12;;;36.90;23.28
75972;BME280;64651;47.540;19.088;2023-08-12T15:31:17;100679.62;;;37.54;21.91
75972;BME280;64651;47.540;19.088;2023-08-12T15:36:20;100676.44;;;37.77;22.85
75972;BME280;64651;47.540;19.088;2023-08-12T15:41:22;100677.37;;;37.87;21.48
75972;BME280;64651;47.540;19.088;2023-08-12T15:46:24;100673.50;;;37.14;23.57
75972;BME280;64651;47.540;19.088;2023-08-12T15:51:27;100664.72;;;36.60;23.00
75972;BME280;64651;47.540;19.088;2023-08-12T15:56:29;100674.69;;;35.19;24.77
75972;BME280;64651;47.540;19.088;2023-08-12T16:01:35;100676.97;;;35.63;24.87
75972;BME280;64651;47.540;19.088;2023-08-12T16:06:38;100675.28;;;35.30;25.29
75972;BME280;64651;47.540;19.088;2023-08-12T16:11:41;100669.84;;;34.76;26.19
75972;BME280;64651;47.540;19.088;2023-08-12T16:16:43;100673.06;;;33.85;27.79
75972;BME280;64651;47.540;19.088;2023-08-12T16:21:45;100675.84;;;32.97;28.38
75972;BME280;64651;47.540;19.088;2023-08-12T16:26:47;100672.69;;;32.88;28.37
75972;BME280;64651;47.540;19.088;2023-08-12T16:31:50;100676.53;;;32.75;28.41
75972;BME280;64651;47.540;19.088;2023-08-12T16:36:52;100669.66;;;32.65;30.68
75972;BME280;64651;47.540;19.088;2023-08-12T16:42:14;100674.16;;;32.21;31.89
75972;BME280;64651;47.540;19.088;2023-08-12T16:47:16;100673.56;;;31.93;29.66
75972;BME280;64651;47.540;19.088;2023-08-12T16:52:19;100682.81;;;31.41;32.85
75972;BME280;64651;47.540;19.088;2023-08-12T16:57:21;100685.00;;;30.98;33.34
75972;BME280;64651;47.540;19.088;2023-08-12T17:02:24;100682.69;;;30.58;34.66
75972;BME280;64651;47.540;19.088;2023-08-12T17:07:26;100671.37;;;30.12;34.07
75972;BME280;64651;47.540;19.088;2023-08-12T17:12:29;100682.25;;;29.64;36.30
75972;BME280;64651;47.540;19.088;2023-08-12T17:17:31;100687.34;;;29.19;37.66
75972;BME280;64651;47.540;19.088;2023-08-12T17:22:34;100695.63;;;28.77;38.05
75972;BME280;64651;47.540;19.088;2023-08-12T17:27:36;100696.94;;;28.35;37.26
75972;BME280;64651;47.540;19.088;2023-08-12T17:32:39;100689.56;;;27.79;38.50
75972;BME280;64651;47.540;19.088;2023-08-12T17:37:41;100708.06;;;27.36;39.15
75972;BME280;64651;47.540;19.088;2023-08-12T17:42:43;100711.03;;;26.87;40.88
75972;BME280;64651;47.540;19.088;2023-08-12T17:48:00;100701.75;;;26.34;41.76
75972;BME280;64651;47.540;19.088;2023-08-12T17:53:05;100707.75;;;25.87;42.86
75972;BME280;64651;47.540;19.088;2023-08-12T17:58:07;100710.94;;;25.43;43.45
75972;BME280;64651;47.540;19.088;2023-08-12T18:03:09;100717.47;;;25.09;44.02
75972;BME280;64651;47.540;19.088;2023-08-12T18:08:12;100723.62;;;24.80;44.94
75972;BME280;64651;47.540;19.088;2023-08-12T18:13:14;100724.59;;;24.52;45.82
75972;BME280;64651;47.540;19.088;2023-08-12T18:18:17;100729.78;;;24.35;47.26
75972;BME280;64651;47.540;19.088;2023-08-12T18:23:19;100729.13;;;24.10;47.70
75972;BME280;64651;47.540;19.088;2023-08-12T18:28:22;100746.28;;;23.89;48.82
75972;BME280;64651;47.540;19.088;2023-08-12T18:33:24;100741.56;;;23.77;49.05
75972;BME280;64651;47.540;19.088;2023-08-12T18:38:27;100743.25;;;23.66;49.58
75972;BME280;64651;47.540;19.088;2023-08-12T18:43:29;100754.09;;;23.52;50.09
75972;BME280;64651;47.540;19.088;2023-08-12T18:48:31;100760.81;;;23.35;50.87
75972;BME280;64651;47.540;19.088;2023-08-12T18:53:34;100764.47;;;23.12;51.80
75972;BME280;64651;47.540;19.088;2023-08-12T18:58:36;100769.94;;;22.92;52.25
75972;BME280;64651;47.540;19.088;2023-08-12T19:03:38;100769.81;;;22.77;53.21
75972;BME280;64651;47.540;19.088;2023-08-12T19:08:41;100787.09;;;22.66;53.97
75972;BME280;64651;47.540;19.088;2023-08-12T19:13:43;100792.00;;;22.57;54.50
75972;BME280;64651;47.540;19.088;2023-08-12T19:18:45;100785.72;;;22.48;55.24
75972;BME280;64651;47.540;19.088;2023-08-12T19:23:47;100800.78;;;22.44;55.94
75972;BME280;64651;47.540;19.088;2023-08-12T19:28:52;100804.84;;;22.34;56.41
75972;BME280;64651;47.540;19.088;2023-08-12T19:33:55;100803.34;;;22.24;57.70
75972;BME280;64651;47.540;19.088;2023-08-12T19:38:57;100799.56;;;22.20;57.69
75972;BME280;64651;47.540;19.088;2023-08-12T19:43:59;100798.28;;;22.06;58.36
75972;BME280;64651;47.540;19.088;2023-08-12T19:49:02;100800.19;;;21.93;59.50
75972;BME280;64651;47.540;19.088;2023-08-12T19:54:05;100807.28;;;21.91;59.41
75972;BME280;64651;47.540;19.088;2023-08-12T19:59:07;100800.19;;;21.93;59.48
75972;BME280;64651;47.540;19.088;2023-08-12T20:04:09;100814.88;;;21.90;60.86
75972;BME280;64651;47.540;19.088;2023-08-12T20:09:11;100816.22;;;21.72;61.75
75972;BME280;64651;47.540;19.088;2023-08-12T20:14:14;100814.88;;;21.57;62.86
75972;BME280;64651;47.540;19.088;2023-08-12T20:19:16;100817.41;;;21.50;63.18
75972;BME280;64651;47.540;19.088;2023-08-12T20:24:18;100824.06;;;21.45;63.47
75972;BME280;64651;47.540;19.088;2023-08-12T20:29:20;100823.28;;;21.36;64.48
75972;BME280;64651;47.540;19.088;2023-08-12T20:34:23;100828.97;;;21.28;65.46
75972;BME280;64651;47.540;19.088;2023-08-12T20:39:25;100836.28;;;21.20;65.82
75972;BME280;64651;47.540;19.088;2023-08-12T20:44:27;100839.09;;;21.12;66.82
75972;BME280;64651;47.540;19.088;2023-08-12T20:49:29;100839.16;;;21.03;67.66
75972;BME280;64651;47.540;19.088;2023-08-12T20:54:32;100838.72;;;20.92;68.06
75972;BME280;64651;47.540;19.088;2023-08-12T20:59:34;100840.63;;;20.80;69.02
75972;BME280;64651;47.540;19.088;2023-08-12T21:04:36;100839.97;;;20.74;69.51
75972;BME280;64651;47.540;19.088;2023-08-12T21:09:38;100846.13;;;20.59;70.32
75972;BME280;64651;47.540;19.088;2023-08-12T21:14:40;100848.44;;;20.57;70.49
75972;BME280;64651;47.540;19.088;2023-08-12T21:19:43;100837.84;;;20.42;71.32
75972;BME280;64651;47.540;19.088;2023-08-12T21:24:45;100841.16;;;20.35;71.66
75972;BME280;64651;47.540;19.088;2023-08-12T21:29:47;100846.53;;;20.32;71.74
75972;BME280;64651;47.540;19.088;2023-08-12T21:34:49;100840.31;;;20.35;71.15
75972;BME280;64651;47.540;19.088;2023-08-12T21:39:52;100844.75;;;20.27;71.20
75972;BME280;64651;47.540;19.088;2023-08-12T21:44:54;100850.34;;;20.27;71.19
75972;BME280;64651;47.540;19.088;2023-08-12T21:49:56;100841.81;;;20.15;71.29
75972;BME280;64651;47.540;19.088;2023-08-12T21:54:59;100836.09;;;20.11;71.57
75972;BME280;64651;47.540;19.088;2023-08-12T22:00:01;100837.44;;;19.97;72.01
75972;BME280;64651;47.540;19.088;2023-08-12T22:05:04;100838.25;;;19.89;72.00
75972;BME280;64651;47.540;19.088;2023-08-12T22:10:06;100827.75;;;19.77;72.26
75972;BME280;64651;47.540;19.088;2023-08-12T22:15:08;100831.59;;;19.64;72.88
75972;BME280;64651;47.540;19.088;2023-08-12T22:20:11;100831.25;;;19.57;73.21
75972;BME280;64651;47.540;19.088;2023-08-12T22:25:15;100824.84;;;19.48;73.79
75972;BME280;64651;47.540;19.088;2023-08-12T22:30:18;100835.19;;;19.47;74.21
75972;BME280;64651;47.540;19.088;2023-08-12T22:35:20;100820.03;;;19.39;74.44
75972;BME280;64651;47.540;19.088;2023-08-12T22:40:22;100829.87;;;19.28;74.94
75972;BME280;64651;47.540;19.088;2023-08-12T22:45:25;100829.72;;;19.16;75.65
75972;BME280;64651;47.540;19.088;2023-08-12T22:50:27;100822.16;;;18.99;76.29
75972;BME280;64651;47.540;19.088;2023-08-12T22:55:29;100827.37;;;18.92;77.01
75972;BME280;64651;47.540;19.088;2023-08-12T23:00:32;100828.53;;;18.83;77.79
75972;BME280;64651;47.540;19.088;2023-08-12T23:05:34;100824.06;;;18.73;78.44
75972;BME280;64651;47.540;19.088;2023-08-12T23:10:36;100824.72;;;18.70;78.50
75972;BME280;64651;47.540;19.088;2023-08-12T23:15:38;100819.13;;;18.70;78.76
75972;BME280;64651;47.540;19.088;2023-08-12T23:20:41;100830.75;;;18.63;79.53
75972;BME280;64651;47.540;19.088;2023-08-12T23:25:43;100823.37;;;18.59;79.34
75972;BME280;64651;47.540;19.088;2023-08-12T23:30:45;100814.38;;;18.71;78.71
75972;BME280;64651;47.540;19.088;2023-08-12T23:35:47;100813.37;;;18.58;78.71
75972;BME280;64651;47.540;19.088;2023-08-12T23:40:49;100829.03;;;18.45;79.50
75972;BME280;64651;47.540;19.088;2023-08-12T23:45:52;100822.78;;;18.48;79.52
75972;BME280;64651;47.540;19.088;2023-08-12T23:50:59;100829.31;;;18.35;80.41
75972;BME280;64651;47.540;19.088;2023-08-12T23:56:02;100830.41;;;18.25;80.75
